Big Bear Station Historical Data
Daily Summary for June 28, 2017 Units:  English    Metric   Both
« Previous Day
Next Day »
Daily Weekly Monthly Yearly Custom
  High: Low: Average:
Temperature: 83.1 °F 48.7 °F 65.7 °F
Dew Point: 43.3 °F 13.0 °F 28.4 °F
Humidity: 45 % 12 % 26 %
Wind Speed: 7.3 mph 0.0 mph 2.2 mph
Wind Gust: -999.0 mph - -
Wind:- - West
Pressure: 30.20 in 30.16 in -
Precipitation: 0.00 in    
Historical Graphs
 
 
Tabular Data for June 28, 2017
Time Temperature Dew Point Pressure Wind Wind Speed Wind Gust Humidity Rainfall Rate (Hourly)
00:10 53.1 °F 17.2 °F 30.19 in SSE 2.7 mph -999.0 mph 24 % 0 in
00:25 52.3 °F 22.5 °F 30.19 in Calm   -999.0 mph 31 % 0 in
00:40 52.3 °F 19.3 °F 30.19 in Calm   -999.0 mph 27 % 0 in
00:56 51.6 °F 21.9 °F 30.19 in Calm   -999.0 mph 31 % 0 in
01:11 51.6 °F 14.0 °F 30.18 in Calm   -999.0 mph 22 % 0 in
01:26 51.8 °F 22.1 °F 30.18 in Calm   -999.0 mph 31 % 0 in
01:41 51.1 °F 15.5 °F 30.18 in Calm   -999.0 mph 24 % 0 in
01:56 51.3 °F 25.2 °F 30.18 in Calm   -999.0 mph 36 % 0 in
02:12 50.5 °F 26.4 °F 30.18 in Calm   -999.0 mph 39 % 0 in
02:27 50.5 °F 24.5 °F 30.17 in Calm   -999.0 mph 36 % 0 in
02:42 50.4 °F 27.6 °F 30.17 in Calm   -999.0 mph 41 % 0 in
02:57 49.5 °F 20.8 °F 30.16 in Calm   -999.0 mph 32 % 0 in
03:12 49.5 °F 24.3 °F 30.16 in Calm   -999.0 mph 37 % 0 in
03:28 49.5 °F 25.6 °F 30.16 in Calm   -999.0 mph 39 % 0 in
03:43 48.7 °F 24.2 °F 30.16 in Calm   -999.0 mph 38 % 0 in
03:58 52.0 °F 15.3 °F 30.16 in SSW 1.1 mph -999.0 mph 23 % 0 in
04:13 53.4 °F 16.5 °F 30.16 in South 2.2 mph -999.0 mph 23 % 0 in
04:28 52.0 °F 16.3 °F 30.16 in SSE 1.7 mph -999.0 mph 24 % 0 in
04:44 53.6 °F 15.6 °F 30.16 in South 2.7 mph -999.0 mph 22 % 0 in
04:59 53.1 °F 15.2 °F 30.16 in Calm   -999.0 mph 22 % 0 in
05:14 54.0 °F 13.8 °F 30.16 in South 2.7 mph -999.0 mph 20 % 0 in
05:30 53.1 °F 13.0 °F 30.16 in SSE 1.7 mph -999.0 mph 20 % 0 in
05:45 54.1 °F 13.9 °F 30.17 in South 2.2 mph -999.0 mph 20 % 0 in
06:01 55.6 °F 15.1 °F 30.17 in SSW 2.2 mph -999.0 mph 20 % 0 in
06:16 55.6 °F 17.3 °F 30.17 in South 2.7 mph -999.0 mph 22 % 0 in
06:31 55.2 °F 19.0 °F 30.17 in Calm   -999.0 mph 24 % 0 in
06:47 55.8 °F 20.5 °F 30.17 in WNW 1.1 mph -999.0 mph 25 % 0 in
07:02 57.4 °F 20.9 °F 30.17 in Calm   -999.0 mph 24 % 0 in
07:17 58.8 °F 21.1 °F 30.17 in Calm   -999.0 mph 23 % 0 in
07:33 60.3 °F 22.3 °F 30.18 in Calm   -999.0 mph 23 % 0 in
07:48 60.3 °F 25.3 °F 30.18 in Calm   -999.0 mph 26 % 0 in
08:03 61.0 °F 24.9 °F 30.18 in Calm   -999.0 mph 25 % 0 in
08:18 62.2 °F 24.9 °F 30.18 in Calm   -999.0 mph 24 % 0 in
08:33 63.9 °F 22.0 °F 30.18 in NNW 1.7 mph -999.0 mph 20 % 0 in
08:49 65.1 °F 25.3 °F 30.18 in NW 2.7 mph -999.0 mph 22 % 0 in
09:04 66.2 °F 26.2 °F 30.18 in NNW 3.2 mph -999.0 mph 22 % 0 in
09:19 67.3 °F 23.6 °F 30.18 in NW 1.1 mph -999.0 mph 19 % 0 in
09:34 68.7 °F 26.0 °F 30.19 in NW 4.7 mph -999.0 mph 20 % 0 in
09:49 70.3 °F 26.1 °F 30.18 in NNW 2.7 mph -999.0 mph 19 % 0 in
10:05 71.2 °F 24.1 °F 30.18 in North 3.7 mph -999.0 mph 17 % 0 in
10:20 72.3 °F 22.0 °F 30.19 in NNW 2.2 mph -999.0 mph 15 % 0 in
10:35 73.2 °F 25.8 °F 30.19 in NW 4.7 mph -999.0 mph 17 % 0 in
10:51 73.6 °F 24.6 °F 30.19 in NW 3.7 mph -999.0 mph 16 % 0 in
11:06 74.1 °F 25.0 °F 30.19 in West 3.7 mph -999.0 mph 16 % 0 in
11:21 75.9 °F 24.9 °F 30.19 in NW 6.3 mph -999.0 mph 15 % 0 in
11:36 76.6 °F 20.2 °F 30.19 in ESE 3.7 mph -999.0 mph 12 % 0 in
11:52 78.3 °F 21.5 °F 30.20 in North 3.7 mph -999.0 mph 12 % 0 in
12:07 80.8 °F 28.8 °F 30.20 in NW 5.3 mph -999.0 mph 15 % 0 in
12:22 81.1 °F 29.1 °F 30.20 in NW 5.8 mph -999.0 mph 15 % 0 in
12:38 81.7 °F 34.1 °F 30.20 in NW 5.3 mph -999.0 mph 18 % 0 in
12:53 81.7 °F 36.7 °F 30.20 in NW 4.7 mph -999.0 mph 20 % 0 in
13:08 83.1 °F 33.8 °F 30.20 in NW 4.7 mph -999.0 mph 17 % 0 in
13:24 82.9 °F 32.1 °F 30.19 in NNW 4.7 mph -999.0 mph 16 % 0 in
13:39 82.6 °F 33.4 °F 30.19 in NW 5.3 mph -999.0 mph 17 % 0 in
13:54 82.8 °F 33.5 °F 30.19 in West 3.2 mph -999.0 mph 17 % 0 in
14:09 82.6 °F 36.2 °F 30.19 in WNW 5.8 mph -999.0 mph 19 % 0 in
14:24 82.4 °F 34.6 °F 30.19 in SW 2.7 mph -999.0 mph 18 % 0 in
14:40 82.8 °F 35.0 °F 30.19 in NNE 4.7 mph -999.0 mph 18 % 0 in
14:55 82.8 °F 36.3 °F 30.18 in North 5.3 mph -999.0 mph 19 % 0 in
15:10 81.9 °F 35.6 °F 30.18 in NNW 5.3 mph -999.0 mph 19 % 0 in
15:25 82.4 °F 37.3 °F 30.18 in West 2.7 mph -999.0 mph 20 % 0 in
15:40 81.5 °F 37.8 °F 30.18 in WNW 5.8 mph -999.0 mph 21 % 0 in
15:56 81.0 °F 36.2 °F 30.18 in WNW 5.8 mph -999.0 mph 20 % 0 in
16:11 80.1 °F 36.6 °F 30.18 in North 3.7 mph -999.0 mph 21 % 0 in
16:26 80.2 °F 37.9 °F 30.18 in North 4.2 mph -999.0 mph 22 % 0 in
16:41 81.9 °F 39.3 °F 30.17 in NNW 5.3 mph -999.0 mph 22 % 0 in
16:56 82.6 °F 38.7 °F 30.17 in NW 6.3 mph -999.0 mph 21 % 0 in
17:12 81.9 °F 40.5 °F 30.17 in WNW 5.3 mph -999.0 mph 23 % 0 in
17:27 80.8 °F 41.7 °F 30.17 in NNW 2.2 mph -999.0 mph 25 % 0 in
17:42 79.7 °F 41.8 °F 30.16 in SSE 3.2 mph -999.0 mph 26 % 0 in
17:58 79.0 °F 43.1 °F 30.16 in West 4.2 mph -999.0 mph 28 % 0 in
18:13 76.8 °F 41.2 °F 30.17 in NNW 7.3 mph -999.0 mph 28 % 0 in
18:28 75.9 °F 42.2 °F 30.17 in NW 4.2 mph -999.0 mph 30 % 0 in
18:43 76.1 °F 43.3 °F 30.17 in NNW 3.7 mph -999.0 mph 31 % 0 in
18:59 73.9 °F 43.0 °F 30.17 in West 1.1 mph -999.0 mph 33 % 0 in
19:14 73.9 °F 43.0 °F 30.17 in SSW 1.7 mph -999.0 mph 33 % 0 in
19:29 70.0 °F 41.8 °F 30.17 in NNW 1.1 mph -999.0 mph 36 % 0 in
19:44 65.7 °F 40.7 °F 30.17 in WSW 2.7 mph -999.0 mph 40 % 0 in
19:59 63.7 °F 40.8 °F 30.17 in SSW 1.7 mph -999.0 mph 43 % 0 in
20:15 62.8 °F 41.1 °F 30.17 in Calm   -999.0 mph 45 % 0 in
20:30 62.2 °F 40.6 °F 30.17 in Calm   -999.0 mph 45 % 0 in
20:45 61.2 °F 39.7 °F 30.18 in SSW 1.7 mph -999.0 mph 45 % 0 in
21:00 60.1 °F 36.9 °F 30.18 in Calm   -999.0 mph 42 % 0 in
21:15 59.5 °F 33.2 °F 30.18 in South 1.7 mph -999.0 mph 37 % 0 in
21:31 59.4 °F 31.7 °F 30.18 in Calm   -999.0 mph 35 % 0 in
21:46 58.5 °F 30.2 °F 30.18 in Calm   -999.0 mph 34 % 0 in
22:01 58.1 °F 29.1 °F 30.18 in Calm   -999.0 mph 33 % 0 in
22:16 58.1 °F 27.6 °F 30.19 in Calm   -999.0 mph 31 % 0 in
22:31 57.0 °F 30.3 °F 30.19 in Calm   -999.0 mph 36 % 0 in
22:47 55.6 °F 29.7 °F 30.19 in Calm   -999.0 mph 37 % 0 in
23:02 54.7 °F 24.6 °F 30.19 in Calm   -999.0 mph 31 % 0 in
23:17 54.1 °F 23.3 °F 30.18 in Calm   -999.0 mph 30 % 0 in
23:32 53.1 °F 24.0 °F 30.18 in Calm   -999.0 mph 32 % 0 in
23:47 52.9 °F 26.7 °F 30.18 in Calm   -999.0 mph 36 % 0 in
Big Bear CA Weather
Compliments of Weather Underground - 1.5 mb